Time;durP1;ratioP1;P1;durP2;ratioP2;P2;SDS_P1;SDS_P2;PMS_P1;PMS_P2;Temp;Humidity;BMP_temperature;BMP_pressure;BME280_temperature;BME280_humidity;BME280_pressure;Samples;Min_cycle;Max_cycle;Signal;HPM_P1;HPM_P2
2021/12/20 00:02:16;;;;;;;35.60;20.08;;;;;;;;;;5125611;28;20372;-66
2021/12/20 00:04:45;;;;;;;30.77;18.80;;;;;;;;;;5125183;28;20406;-66
2021/12/20 00:07:11;;;;;;;37.72;21.10;;;;;;;;;;5126118;28;20191;-66
2021/12/20 00:09:39;;;;;;;37.08;20.23;;;;;;;;;;5125674;28;20483;-66
2021/12/20 00:12:06;;;;;;;35.35;19.58;;;;;;;;;;5125918;28;20491;-65
2021/12/20 00:14:32;;;;;;;35.83;20.38;;;;;;;;;;5125126;28;20191;-66
2021/12/20 00:16:58;;;;;;;33.75;18.50;;;;;;;;;;5125815;28;20202;-66
2021/12/20 00:19:26;;;;;;;33.95;18.75;;;;;;;;;;5125545;28;20517;-66
2021/12/20 00:21:52;;;;;;;30.80;18.05;;;;;;;;;;5125461;28;20195;-66
2021/12/20 00:24:20;;;;;;;32.95;18.65;;;;;;;;;;5125094;28;20195;-66
2021/12/20 00:26:47;;;;;;;31.85;18.98;;;;;;;;;;5125042;28;20195;-66
2021/12/20 00:29:14;;;;;;;29.33;18.58;;;;;;;;;;5125214;28;20195;-66
2021/12/20 00:31:40;;;;;;;32.85;18.63;;;;;;;;;;5125390;28;20191;-66
2021/12/20 00:34:07;;;;;;;29.73;18.13;;;;;;;;;;5125297;28;20195;-66
2021/12/20 00:36:33;;;;;;;34.10;18.50;;;;;;;;;;5124626;27;20202;-66
2021/12/20 00:41:43;;;;;;;30.02;17.75;;;;;;;;;;5124892;28;20218;-66
2021/12/20 00:44:11;;;;;;;28.83;17.85;;;;;;;;;;5125196;28;20386;-66
2021/12/20 00:46:37;;;;;;;28.05;16.45;;;;;;;;;;5124842;28;20414;-66
2021/12/20 00:49:04;;;;;;;29.00;16.90;;;;;;;;;;5124624;28;20195;-66
2021/12/20 00:51:30;;;;;;;27.35;17.17;;;;;;;;;;5124866;28;20383;-66
2021/12/20 00:53:57;;;;;;;27.50;17.95;;;;;;;;;;5124769;28;20225;-66
2021/12/20 00:56:23;;;;;;;28.98;17.17;;;;;;;;;;5123212;28;20202;-65
2021/12/20 00:58:49;;;;;;;32.33;18.23;;;;;;;;;;5124630;28;20202;-65
2021/12/20 01:01:17;;;;;;;28.58;17.75;;;;;;;;;;5124567;28;20565;-66
2021/12/20 01:03:44;;;;;;;30.40;17.90;;;;;;;;;;5124808;28;20203;-66
2021/12/20 01:06:10;;;;;;;32.63;17.40;;;;;;;;;;5124362;28;20195;-66
2021/12/20 01:08:40;;;;;;;30.80;17.40;;;;;;;;;;5124367;28;20203;-66
2021/12/20 01:11:06;;;;;;;30.88;16.98;;;;;;;;;;5124387;28;20237;-66
2021/12/20 01:13:39;;;;;;;24.20;16.00;;;;;;;;;;5124656;28;20216;-66
2021/12/20 01:16:06;;;;;;;27.42;17.42;;;;;;;;;;5123552;28;20214;-66
2021/12/20 01:18:34;;;;;;;27.45;17.60;;;;;;;;;;5124894;28;20203;-66
2021/12/20 01:21:01;;;;;;;29.90;17.67;;;;;;;;;;5124206;28;20215;-66
2021/12/20 01:23:27;;;;;;;26.10;16.13;;;;;;;;;;5124127;28;20195;-66
2021/12/20 01:25:53;;;;;;;29.13;17.70;;;;;;;;;;5123964;28;20195;-65
2021/12/20 01:28:20;;;;;;;26.45;16.33;;;;;;;;;;5123927;28;20248;-66
2021/12/20 01:30:46;;;;;;;26.63;16.02;;;;;;;;;;5124042;28;20497;-66
2021/12/20 01:33:13;;;;;;;25.02;15.50;;;;;;;;;;5123873;28;20201;-66
2021/12/20 01:35:42;;;;;;;23.92;15.27;;;;;;;;;;5123453;28;20244;-68
2021/12/20 01:38:08;;;;;;;27.25;16.83;;;;;;;;;;5123918;28;20202;-68
2021/12/20 01:40:36;;;;;;;24.60;15.27;;;;;;;;;;5123476;28;20211;-68
2021/12/20 01:43:03;;;;;;;26.83;14.93;;;;;;;;;;5124173;28;20211;-67
2021/12/20 01:45:30;;;;;;;24.02;15.25;;;;;;;;;;5126432;28;20215;-68
2021/12/20 01:48:04;;;;;;;26.42;15.55;;;;;;;;;;5126141;27;20191;-68
2021/12/20 01:53:13;;;;;;;22.13;14.57;;;;;;;;;;5123963;28;20187;-68
2021/12/20 01:55:40;;;;;;;24.67;14.65;;;;;;;;;;5125897;28;20376;-68
2021/12/20 01:58:06;;;;;;;23.90;15.40;;;;;;;;;;5125817;28;20252;-68
2021/12/20 02:00:34;;;;;;;21.70;15.10;;;;;;;;;;5125505;28;20226;-68
2021/12/20 02:03:02;;;;;;;24.30;14.80;;;;;;;;;;5125644;28;20240;-68
2021/12/20 02:05:46;;;;;;;21.23;13.93;;;;;;;;;;5125216;28;20266;-68
2021/12/20 02:08:18;;;;;;;23.25;15.15;;;;;;;;;;5125160;28;20198;-68
2021/12/20 02:10:45;;;;;;;23.17;14.73;;;;;;;;;;5125567;28;20466;-68
2021/12/20 02:13:12;;;;;;;24.50;14.82;;;;;;;;;;5126104;28;20202;-68
2021/12/20 02:15:38;;;;;;;25.55;15.07;;;;;;;;;;5125282;28;20191;-68
2021/12/20 02:18:05;;;;;;;24.23;15.60;;;;;;;;;;5125629;28;20526;-68
2021/12/20 02:20:33;;;;;;;25.88;15.80;;;;;;;;;;5125312;27;20387;-68
2021/12/20 02:23:00;;;;;;;25.13;15.63;;;;;;;;;;5125666;28;20195;-68
2021/12/20 02:25:28;;;;;;;20.98;13.73;;;;;;;;;;5124448;27;20218;-68
2021/12/20 02:27:55;;;;;;;23.10;14.82;;;;;;;;;;5123455;28;20522;-66
2021/12/20 02:38:38;;;;;;;22.73;14.73;;;;;;;;;;5123069;28;20421;-66
2021/12/20 02:41:07;;;;;;;25.00;14.25;;;;;;;;;;5122932;28;20207;-66
2021/12/20 02:43:37;;;;;;;22.33;14.52;;;;;;;;;;5123136;28;20203;-66
2021/12/20 02:46:07;;;;;;;20.95;14.35;;;;;;;;;;5122652;28;20289;-66
2021/12/20 02:48:33;;;;;;;22.67;14.75;;;;;;;;;;5122667;28;20479;-64
2021/12/20 02:51:01;;;;;;;26.23;15.90;;;;;;;;;;5123200;28;20198;-65
2021/12/20 02:53:28;;;;;;;23.90;15.18;;;;;;;;;;5122754;28;20195;-65
2021/12/20 02:55:54;;;;;;;22.23;14.35;;;;;;;;;;5122268;28;20195;-65
2021/12/20 02:58:21;;;;;;;25.83;14.50;;;;;;;;;;5122855;28;20373;-65
2021/12/20 03:00:47;;;;;;;24.95;15.27;;;;;;;;;;5123015;28;20218;-65
2021/12/20 03:03:13;;;;;;;26.42;16.17;;;;;;;;;;5122816;28;20195;-65
2021/12/20 03:05:40;;;;;;;24.33;15.30;;;;;;;;;;5122692;28;20191;-65
2021/12/20 03:08:08;;;;;;;25.40;15.57;;;;;;;;;;5122575;28;20203;-65
2021/12/20 03:10:39;;;;;;;25.63;16.38;;;;;;;;;;5122079;28;20224;-65
2021/12/20 03:13:05;;;;;;;32.95;16.85;;;;;;;;;;5122808;28;20200;-65
2021/12/20 03:15:32;;;;;;;28.48;17.02;;;;;;;;;;5122238;28;20240;-65
2021/12/20 03:17:58;;;;;;;29.67;17.50;;;;;;;;;;5122715;28;20604;-65
2021/12/20 03:20:25;;;;;;;27.42;17.63;;;;;;;;;;5125928;28;20191;-65
2021/12/20 03:22:51;;;;;;;29.83;17.73;;;;;;;;;;5126509;28;20194;-65
2021/12/20 03:25:21;;;;;;;29.30;16.77;;;;;;;;;;5125865;28;20199;-65
2021/12/20 03:27:47;;;;;;;30.70;16.83;;;;;;;;;;5126790;28;20229;-65
2021/12/20 03:30:14;;;;;;;29.70;17.17;;;;;;;;;;5126675;28;20195;-65
2021/12/20 03:32:41;;;;;;;31.25;17.15;;;;;;;;;;5126404;28;20375;-65
2021/12/20 03:35:08;;;;;;;29.42;17.40;;;;;;;;;;5126153;28;20195;-65
2021/12/20 03:37:34;;;;;;;29.25;16.83;;;;;;;;;;5126545;28;20202;-65
2021/12/20 03:40:01;;;;;;;31.10;17.45;;;;;;;;;;5126348;27;20195;-65
2021/12/20 03:42:29;;;;;;;29.05;16.92;;;;;;;;;;5126129;28;20227;-65
2021/12/20 03:44:56;;;;;;;27.85;16.63;;;;;;;;;;5125673;27;20297;-65
2021/12/20 03:47:22;;;;;;;31.35;16.80;;;;;;;;;;5126389;28;20223;-65
2021/12/20 03:49:49;;;;;;;25.58;15.75;;;;;;;;;;5125949;28;20195;-65
2021/12/20 03:52:15;;;;;;;31.95;17.52;;;;;;;;;;5126275;28;20206;-65
2021/12/20 03:54:42;;;;;;;29.77;17.50;;;;;;;;;;5125833;28;20191;-65
2021/12/20 03:57:08;;;;;;;30.30;17.55;;;;;;;;;;5125854;28;20394;-65
2021/12/20 03:59:36;;;;;;;32.13;18.55;;;;;;;;;;5125975;28;20210;-65
2021/12/20 04:02:03;;;;;;;32.50;17.20;;;;;;;;;;5125852;28;20264;-65
2021/12/20 04:04:29;;;;;;;29.98;17.27;;;;;;;;;;5125323;28;20207;-65
2021/12/20 04:06:55;;;;;;;27.85;16.20;;;;;;;;;;5125872;28;20195;-65
2021/12/20 04:09:22;;;;;;;25.52;16.10;;;;;;;;;;5127066;28;20391;-67
2021/12/20 04:11:48;;;;;;;30.38;16.63;;;;;;;;;;5128455;28;20191;-68
2021/12/20 04:14:15;;;;;;;25.25;15.40;;;;;;;;;;5127854;28;20195;-68
2021/12/20 04:16:42;;;;;;;23.63;15.60;;;;;;;;;;5127989;28;20195;-68
2021/12/20 04:19:09;;;;;;;26.80;15.05;;;;;;;;;;5127920;28;20202;-68
2021/12/20 04:21:37;;;;;;;25.90;14.77;;;;;;;;;;5127398;28;20214;-68
2021/12/20 04:24:04;;;;;;;25.25;15.02;;;;;;;;;;5126859;28;20396;-68
2021/12/20 04:26:30;;;;;;;28.52;15.85;;;;;;;;;;5127294;28;20195;-68
2021/12/20 04:28:57;;;;;;;24.45;14.65;;;;;;;;;;5127387;28;20195;-68
2021/12/20 04:31:23;;;;;;;22.60;14.13;;;;;;;;;;5127186;28;20410;-68
2021/12/20 04:33:51;;;;;;;21.77;14.77;;;;;;;;;;5126951;28;20195;-68
2021/12/20 04:36:18;;;;;;;25.55;15.52;;;;;;;;;;5127102;28;20195;-68
2021/12/20 04:38:44;;;;;;;26.55;15.38;;;;;;;;;;5127275;28;20503;-68
2021/12/20 04:41:11;;;;;;;25.30;15.13;;;;;;;;;;5126824;28;20214;-68
2021/12/20 04:43:37;;;;;;;24.80;15.43;;;;;;;;;;5126256;28;20201;-68
2021/12/20 04:46:03;;;;;;;23.88;15.07;;;;;;;;;;5124478;28;20237;-68
2021/12/20 04:48:30;;;;;;;24.42;14.57;;;;;;;;;;5124679;28;20203;-66
2021/12/20 04:50:58;;;;;;;23.88;14.70;;;;;;;;;;5124946;28;20191;-65
2021/12/20 04:53:24;;;;;;;24.92;14.93;;;;;;;;;;5125067;27;20199;-66
2021/12/20 04:55:51;;;;;;;23.48;14.98;;;;;;;;;;5126058;28;20195;-67
2021/12/20 04:58:17;;;;;;;22.05;14.10;;;;;;;;;;5127278;28;20214;-68
2021/12/20 05:00:44;;;;;;;24.10;14.57;;;;;;;;;;5126782;28;20508;-68
2021/12/20 05:03:11;;;;;;;24.63;15.27;;;;;;;;;;5126545;28;20203;-68
2021/12/20 05:05:37;;;;;;;24.30;14.13;;;;;;;;;;5126664;28;20255;-66
2021/12/20 05:08:05;;;;;;;27.33;15.50;;;;;;;;;;5124305;28;20371;-66
2021/12/20 05:10:34;;;;;;;22.30;14.45;;;;;;;;;;5124534;28;20195;-66
2021/12/20 05:13:01;;;;;;;22.25;14.35;;;;;;;;;;5124339;28;20219;-66
2021/12/20 05:15:28;;;;;;;26.83;15.10;;;;;;;;;;5124215;28;20202;-66
2021/12/20 05:17:55;;;;;;;23.60;14.35;;;;;;;;;;5124392;28;20195;-66
2021/12/20 05:20:21;;;;;;;42.85;18.05;;;;;;;;;;5124304;28;20195;-65
2021/12/20 05:22:48;;;;;;;43.53;18.67;;;;;;;;;;5123861;28;20215;-65
2021/12/20 05:25:15;;;;;;;27.33;15.00;;;;;;;;;;5123772;28;20202;-65
2021/12/20 05:27:42;;;;;;;22.50;14.35;;;;;;;;;;5124158;28;20203;-66
2021/12/20 05:30:09;;;;;;;27.02;15.00;;;;;;;;;;5124296;28;20564;-65
2021/12/20 05:32:36;;;;;;;24.40;14.38;;;;;;;;;;5123762;28;20239;-65
2021/12/20 05:35:03;;;;;;;23.50;14.80;;;;;;;;;;5124146;28;20267;-65
2021/12/20 05:37:29;;;;;;;24.75;15.05;;;;;;;;;;5123971;28;20202;-65
2021/12/20 05:39:56;;;;;;;27.05;14.75;;;;;;;;;;5124173;28;20202;-65
2021/12/20 05:42:23;;;;;;;29.83;16.80;;;;;;;;;;5123533;28;20407;-65
2021/12/20 05:44:51;;;;;;;24.85;15.38;;;;;;;;;;5123667;28;20402;-65
2021/12/20 05:47:18;;;;;;;25.10;15.07;;;;;;;;;;5124082;28;20549;-65
2021/12/20 05:49:45;;;;;;;25.75;15.40;;;;;;;;;;5123776;28;20199;-67
2021/12/20 05:52:11;;;;;;;25.63;15.20;;;;;;;;;;5123685;28;20191;-67
2021/12/20 05:54:38;;;;;;;24.98;14.70;;;;;;;;;;5124497;28;20201;-67
2021/12/20 05:57:04;;;;;;;24.25;14.70;;;;;;;;;;5124935;28;20195;-65
2021/12/20 05:59:32;;;;;;;24.73;15.05;;;;;;;;;;5123537;28;20214;-65
2021/12/20 06:01:58;;;;;;;21.52;14.70;;;;;;;;;;5123607;28;20215;-65
2021/12/20 06:04:25;;;;;;;23.77;14.70;;;;;;;;;;5125358;28;20195;-67
2021/12/20 06:06:51;;;;;;;28.45;15.45;;;;;;;;;;5125651;28;20217;-67
2021/12/20 06:09:18;;;;;;;25.15;15.38;;;;;;;;;;5123816;28;20203;-67
2021/12/20 06:11:44;;;;;;;25.08;14.95;;;;;;;;;;5123401;28;20191;-67
2021/12/20 06:14:11;;;;;;;23.85;14.35;;;;;;;;;;5123138;28;20190;-67
2021/12/20 06:16:41;;;;;;;23.88;14.05;;;;;;;;;;5123152;28;20203;-67
2021/12/20 06:19:08;;;;;;;24.58;14.60;;;;;;;;;;5123131;28;20195;-65
2021/12/20 06:21:35;;;;;;;23.38;14.48;;;;;;;;;;5123226;28;20282;-65
2021/12/20 06:24:01;;;;;;;24.10;15.95;;;;;;;;;;5122973;28;20198;-65
2021/12/20 06:26:27;;;;;;;25.23;15.40;;;;;;;;;;5123118;28;20202;-65
2021/12/20 06:28:54;;;;;;;28.35;15.65;;;;;;;;;;5123361;28;20195;-65
2021/12/20 06:31:20;;;;;;;27.00;15.75;;;;;;;;;;5123164;28;20395;-65
2021/12/20 06:33:48;;;;;;;26.98;15.10;;;;;;;;;;5110546;28;20483;-65
2021/12/20 06:36:15;;;;;;;27.52;15.25;;;;;;;;;;5123104;28;20231;-65
2021/12/20 06:38:45;;;;;;;25.80;16.00;;;;;;;;;;5122937;28;20202;-65
2021/12/20 06:41:12;;;;;;;24.38;15.07;;;;;;;;;;5123022;28;20383;-65
2021/12/20 06:43:39;;;;;;;24.45;14.90;;;;;;;;;;5122714;28;20191;-65
2021/12/20 06:46:05;;;;;;;25.38;14.45;;;;;;;;;;5122723;28;20215;-65
2021/12/20 06:48:32;;;;;;;24.77;14.30;;;;;;;;;;5123248;28;20190;-65
2021/12/20 06:50:59;;;;;;;25.83;15.38;;;;;;;;;;5122590;28;20548;-65
2021/12/20 06:53:27;;;;;;;28.02;15.52;;;;;;;;;;5122658;28;20206;-66
2021/12/20 06:55:54;;;;;;;26.90;16.73;;;;;;;;;;5126942;28;20519;-66
2021/12/20 06:58:20;;;;;;;24.13;15.27;;;;;;;;;;5127206;28;20203;-66
2021/12/20 07:00:47;;;;;;;23.13;14.68;;;;;;;;;;5127206;28;20194;-66
2021/12/20 07:03:13;;;;;;;25.20;14.48;;;;;;;;;;5126704;28;20211;-66
2021/12/20 07:05:39;;;;;;;29.83;17.20;;;;;;;;;;5126908;28;20236;-53
2021/12/20 07:08:07;;;;;;;26.00;15.43;;;;;;;;;;5129149;28;20202;-57
2021/12/20 07:10:39;;;;;;;23.85;15.27;;;;;;;;;;5131425;28;20389;-58
2021/12/20 07:13:05;;;;;;;26.55;14.85;;;;;;;;;;5131458;28;20392;-59
2021/12/20 07:15:32;;;;;;;22.45;14.85;;;;;;;;;;5128964;28;20195;-58
2021/12/20 07:17:59;;;;;;;24.77;13.93;;;;;;;;;;5126647;28;20203;-59
2021/12/20 07:20:26;;;;;;;23.13;15.10;;;;;;;;;;5126798;28;20195;-59
2021/12/20 07:22:52;;;;;;;20.42;13.88;;;;;;;;;;5126825;28;20219;-58
2021/12/20 07:25:21;;;;;;;25.10;14.30;;;;;;;;;;5126375;28;20545;-59
2021/12/20 07:27:47;;;;;;;24.83;13.73;;;;;;;;;;5126400;28;20195;-59
2021/12/20 07:30:14;;;;;;;22.40;14.98;;;;;;;;;;5126400;28;20384;-59
2021/12/20 07:32:40;;;;;;;24.00;14.60;;;;;;;;;;5126368;28;20529;-59
2021/12/20 07:35:07;;;;;;;28.48;16.60;;;;;;;;;;5125781;28;20201;-59
2021/12/20 07:37:33;;;;;;;24.13;14.35;;;;;;;;;;5126485;28;20195;-59
2021/12/20 07:39:59;;;;;;;24.02;14.98;;;;;;;;;;5126632;28;20195;-59
2021/12/20 07:42:27;;;;;;;22.08;14.15;;;;;;;;;;5126237;28;20211;-59
2021/12/20 07:44:54;;;;;;;28.40;15.43;;;;;;;;;;5125823;28;20215;-59
2021/12/20 07:47:20;;;;;;;26.50;16.02;;;;;;;;;;5125776;28;20390;-59
2021/12/20 07:49:49;;;;;;;27.73;15.15;;;;;;;;;;5126041;28;20224;-60
2021/12/20 07:52:15;;;;;;;21.77;14.43;;;;;;;;;;5125844;28;20214;-60
2021/12/20 07:54:44;;;;;;;28.63;16.05;;;;;;;;;;5126195;28;20390;-58
2021/12/20 07:57:10;;;;;;;23.30;15.65;;;;;;;;;;5126287;28;20502;-60
2021/12/20 07:59:38;;;;;;;28.35;16.88;;;;;;;;;;5124768;28;20203;-59
2021/12/20 08:02:05;;;;;;;24.65;15.20;;;;;;;;;;5125764;28;20415;-60
2021/12/20 08:04:31;;;;;;;23.92;15.38;;;;;;;;;;5125079;28;20257;-60
2021/12/20 08:06:58;;;;;;;22.48;14.65;;;;;;;;;;5125910;28;20240;-60
2021/12/20 08:09:24;;;;;;;28.50;15.80;;;;;;;;;;5126072;27;20385;-60
2021/12/20 08:11:51;;;;;;;31.17;16.60;;;;;;;;;;5125816;28;20499;-61
2021/12/20 08:14:17;;;;;;;24.20;15.07;;;;;;;;;;5125438;28;20199;-61
2021/12/20 08:16:45;;;;;;;24.65;15.15;;;;;;;;;;5125423;28;20199;-60
2021/12/20 08:19:11;;;;;;;25.02;15.60;;;;;;;;;;5125501;28;20211;-60
2021/12/20 08:21:39;;;;;;;24.42;15.32;;;;;;;;;;5125344;28;20202;-61
2021/12/20 08:24:06;;;;;;;24.42;14.82;;;;;;;;;;5125723;28;20206;-60
2021/12/20 08:26:33;;;;;;;28.77;15.70;;;;;;;;;;5124994;28;20191;-60
2021/12/20 08:28:59;;;;;;;23.75;14.73;;;;;;;;;;5125223;28;20199;-57
2021/12/20 08:31:26;;;;;;;21.23;14.00;;;;;;;;;;5125416;28;20495;-60
2021/12/20 08:33:54;;;;;;;29.33;15.35;;;;;;;;;;5125463;28;20191;-59
2021/12/20 08:36:21;;;;;;;27.88;15.35;;;;;;;;;;5125525;28;20300;-60
2021/12/20 08:38:47;;;;;;;24.58;14.93;;;;;;;;;;5125148;28;20260;-60
2021/12/20 08:41:14;;;;;;;25.52;15.63;;;;;;;;;;5125352;28;20202;-60
2021/12/20 08:43:41;;;;;;;23.60;14.63;;;;;;;;;;5124782;28;20230;-59
2021/12/20 08:46:09;;;;;;;24.60;15.30;;;;;;;;;;5125004;28;20221;-58
2021/12/20 08:48:35;;;;;;;23.40;15.27;;;;;;;;;;5124798;28;20233;-60
2021/12/20 08:51:03;;;;;;;22.60;15.50;;;;;;;;;;5124873;28;20195;-60
2021/12/20 08:53:30;;;;;;;26.90;15.25;;;;;;;;;;5125520;28;20304;-60
2021/12/20 08:55:57;;;;;;;26.55;15.55;;;;;;;;;;5124550;28;20386;-60
2021/12/20 08:58:24;;;;;;;25.60;15.52;;;;;;;;;;5124614;28;20203;-60
2021/12/20 09:00:50;;;;;;;24.40;15.68;;;;;;;;;;5124930;28;20270;-61
2021/12/20 09:03:17;;;;;;;25.33;16.10;;;;;;;;;;5124765;28;20211;-60
2021/12/20 09:05:43;;;;;;;24.70;16.52;;;;;;;;;;5124589;28;20202;-58
2021/12/20 09:08:12;;;;;;;27.00;16.15;;;;;;;;;;5124840;28;20195;-60
2021/12/20 09:10:38;;;;;;;24.38;15.88;;;;;;;;;;5124198;28;20205;-60
2021/12/20 09:13:06;;;;;;;24.17;15.10;;;;;;;;;;5124445;28;20198;-60
2021/12/20 09:15:32;;;;;;;23.33;15.77;;;;;;;;;;5124269;28;20195;-59
2021/12/20 09:17:59;;;;;;;24.55;15.07;;;;;;;;;;5123593;28;20647;-60
2021/12/20 09:20:26;;;;;;;25.63;15.43;;;;;;;;;;5124455;28;20203;-60
2021/12/20 09:22:54;;;;;;;25.95;15.98;;;;;;;;;;5124276;27;20245;-60
2021/12/20 09:25:23;;;;;;;25.25;16.23;;;;;;;;;;5123749;28;20198;-60
2021/12/20 09:27:50;;;;;;;23.55;15.15;;;;;;;;;;5123889;28;20195;-60
2021/12/20 09:30:17;;;;;;;25.00;14.48;;;;;;;;;;5124124;28;20202;-59
2021/12/20 09:32:43;;;;;;;28.48;16.45;;;;;;;;;;5124274;28;20487;-60
2021/12/20 09:35:10;;;;;;;27.25;16.30;;;;;;;;;;5123735;28;20202;-60
2021/12/20 09:37:37;;;;;;;24.95;16.00;;;;;;;;;;5124169;28;20491;-61
2021/12/20 09:40:04;;;;;;;22.50;14.82;;;;;;;;;;5124010;28;20222;-59
2021/12/20 09:42:32;;;;;;;27.27;16.05;;;;;;;;;;5123905;28;20278;-59
2021/12/20 09:45:00;;;;;;;28.10;16.77;;;;;;;;;;5123964;28;20215;-60
2021/12/20 09:47:30;;;;;;;25.00;15.85;;;;;;;;;;5123531;28;20199;-60
2021/12/20 09:49:56;;;;;;;24.48;15.32;;;;;;;;;;5123799;28;20195;-59
2021/12/20 09:52:23;;;;;;;26.63;17.00;;;;;;;;;;5123178;28;20191;-59
2021/12/20 09:54:51;;;;;;;26.35;16.17;;;;;;;;;;5123631;28;20217;-61
2021/12/20 09:57:20;;;;;;;28.10;16.13;;;;;;;;;;5123435;28;20195;-60
2021/12/20 09:59:49;;;;;;;27.23;15.98;;;;;;;;;;5123540;28;20195;-59
2021/12/20 10:02:16;;;;;;;28.75;17.15;;;;;;;;;;5123940;28;20203;-59
2021/12/20 10:04:43;;;;;;;26.50;16.85;;;;;;;;;;5123229;28;20195;-61
2021/12/20 10:07:11;;;;;;;25.60;16.50;;;;;;;;;;5123234;28;20179;-60
2021/12/20 10:09:40;;;;;;;28.50;16.63;;;;;;;;;;5123755;28;20361;-60
2021/12/20 10:12:11;;;;;;;27.23;16.92;;;;;;;;;;5123275;28;20218;-60
2021/12/20 10:14:52;;;;;;;30.17;17.33;;;;;;;;;;5122761;28;20258;-60
2021/12/20 10:17:19;;;;;;;27.33;17.42;;;;;;;;;;5101289;28;20210;-58
2021/12/20 10:19:46;;;;;;;30.13;17.88;;;;;;;;;;5113471;28;20217;-61
2021/12/20 10:22:23;;;;;;;29.17;18.05;;;;;;;;;;5116779;28;20234;-60
2021/12/20 10:24:49;;;;;;;32.00;18.63;;;;;;;;;;5120366;28;20186;-60
2021/12/20 10:27:27;;;;;;;32.25;18.83;;;;;;;;;;5120255;28;20518;-60
2021/12/20 10:29:55;;;;;;;29.45;17.08;;;;;;;;;;5120096;28;20206;-60
2021/12/20 10:32:37;;;;;;;32.38;18.65;;;;;;;;;;5119943;28;20534;-61
2021/12/20 10:35:03;;;;;;;32.80;18.20;;;;;;;;;;5120091;28;20199;-61
2021/12/20 10:37:38;;;;;;;30.20;18.13;;;;;;;;;;5135916;27;20199;-61
2021/12/20 10:40:08;;;;;;;26.75;17.08;;;;;;;;;;5128076;27;20199;-61
2021/12/20 10:42:41;;;;;;;29.92;17.48;;;;;;;;;;5120344;28;20394;-60
2021/12/20 10:45:10;;;;;;;28.38;17.63;;;;;;;;;;5120472;28;20244;-61
2021/12/20 10:47:37;;;;;;;28.25;17.73;;;;;;;;;;5118976;28;20195;-57
2021/12/20 10:50:22;;;;;;;29.70;17.20;;;;;;;;;;5119928;28;20210;-58
2021/12/20 10:52:49;;;;;;;25.13;16.25;;;;;;;;;;5127867;28;20439;-60
2021/12/20 10:55:35;;;;;;;32.60;18.10;;;;;;;;;;5120097;28;20226;-59
2021/12/20 10:58:16;;;;;;;29.17;17.50;;;;;;;;;;5119842;28;20268;-59
2021/12/20 11:00:44;;;;;;;31.20;18.27;;;;;;;;;;5120543;28;20394;-57
2021/12/20 11:03:28;;;;;;;25.85;16.30;;;;;;;;;;5120071;28;20562;-60
2021/12/20 11:06:25;;;;;;;28.58;17.23;;;;;;;;;;5119727;28;20591;-57
2021/12/20 11:09:05;;;;;;;29.17;16.38;;;;;;;;;;5120017;28;20242;-59
2021/12/20 11:11:33;;;;;;;30.83;16.95;;;;;;;;;;5119945;28;20201;-59
2021/12/20 11:14:00;;;;;;;23.05;16.08;;;;;;;;;;5129922;28;20192;-59
2021/12/20 11:16:30;;;;;;;21.50;13.50;;;;;;;;;;5120232;28;20370;-57
2021/12/20 11:19:11;;;;;;;23.02;14.35;;;;;;;;;;5120147;28;20191;-59
2021/12/20 11:21:38;;;;;;;21.70;12.93;;;;;;;;;;5117603;28;20202;-59
2021/12/20 11:24:11;;;;;;;23.27;13.65;;;;;;;;;;5119442;28;20218;-58
2021/12/20 11:26:38;;;;;;;18.45;12.35;;;;;;;;;;5119992;28;20203;-58
2021/12/20 11:29:05;;;;;;;21.83;12.15;;;;;;;;;;5119865;28;20503;-56
2021/12/20 11:31:33;;;;;;;17.75;12.50;;;;;;;;;;5119843;28;20466;-56
2021/12/20 11:34:00;;;;;;;18.80;11.88;;;;;;;;;;5119927;28;20198;-57
2021/12/20 11:36:26;;;;;;;18.92;11.82;;;;;;;;;;5119735;28;20231;-58
2021/12/20 11:38:53;;;;;;;22.52;12.90;;;;;;;;;;5119409;28;20203;-58
2021/12/20 11:41:20;;;;;;;19.27;12.52;;;;;;;;;;5123079;28;20217;-57
2021/12/20 11:43:46;;;;;;;21.77;13.57;;;;;;;;;;5123686;28;20583;-58
2021/12/20 11:46:14;;;;;;;20.95;13.43;;;;;;;;;;5123161;28;20227;-58
2021/12/20 11:48:43;;;;;;;20.88;12.70;;;;;;;;;;5123698;28;20240;-58
2021/12/20 11:51:10;;;;;;;22.77;13.18;;;;;;;;;;5123563;28;20210;-57
2021/12/20 11:53:37;;;;;;;20.02;12.48;;;;;;;;;;5123442;28;20231;-58
2021/12/20 11:56:04;;;;;;;21.42;12.20;;;;;;;;;;5122939;27;20210;-58
2021/12/20 11:58:32;;;;;;;22.13;12.48;;;;;;;;;;5123797;28;20503;-58
2021/12/20 12:01:00;;;;;;;21.88;12.55;;;;;;;;;;5123067;28;20203;-58
2021/12/20 12:03:27;;;;;;;17.08;11.80;;;;;;;;;;5122740;28;20523;-58
2021/12/20 12:05:56;;;;;;;16.65;11.15;;;;;;;;;;5123076;28;20248;-60
2021/12/20 12:08:28;;;;;;;19.85;12.52;;;;;;;;;;5123222;28;20401;-59
2021/12/20 12:10:55;;;;;;;20.23;11.77;;;;;;;;;;5123075;28;20448;-59
2021/12/20 12:13:24;;;;;;;18.05;11.32;;;;;;;;;;5123921;27;20191;-58
2021/12/20 12:15:52;;;;;;;22.50;11.65;;;;;;;;;;5122624;27;20206;-59
2021/12/20 12:18:19;;;;;;;18.65;11.32;;;;;;;;;;5122688;28;20237;-59
2021/12/20 12:20:48;;;;;;;15.35;10.88;;;;;;;;;;5123062;28;20203;-59
2021/12/20 12:23:18;;;;;;;20.23;12.30;;;;;;;;;;5122510;28;20223;-59
2021/12/20 12:25:46;;;;;;;19.02;11.65;;;;;;;;;;5123776;28;20192;-58
2021/12/20 12:28:14;;;;;;;17.85;11.07;;;;;;;;;;5124955;28;20207;-59
2021/12/20 12:30:44;;;;;;;17.75;11.18;;;;;;;;;;5124261;28;20203;-59
2021/12/20 12:33:32;;;;;;;16.83;9.52;;;;;;;;;;5124590;28;20267;-59
2021/12/20 12:36:00;;;;;;;18.30;10.57;;;;;;;;;;5119159;27;20700;-59
2021/12/20 12:38:31;;;;;;;18.75;10.27;;;;;;;;;;5124298;28;20210;-59
2021/12/20 12:41:13;;;;;;;15.50;9.95;;;;;;;;;;5124059;28;20205;-58
2021/12/20 12:43:52;;;;;;;19.95;10.55;;;;;;;;;;5124038;28;20234;-59
2021/12/20 12:46:33;;;;;;;15.50;10.43;;;;;;;;;;5124745;28;20527;-59
2021/12/20 12:49:00;;;;;;;15.55;9.52;;;;;;;;;;5123657;28;20658;-60
2021/12/20 12:51:40;;;;;;;14.65;9.57;;;;;;;;;;5122753;28;20397;-60
2021/12/20 12:54:08;;;;;;;12.50;8.52;;;;;;;;;;5124087;28;20205;-58
2021/12/20 12:56:35;;;;;;;15.05;9.32;;;;;;;;;;5124325;28;20442;-58
2021/12/20 12:59:24;;;;;;;14.52;9.40;;;;;;;;;;5124210;28;20210;-60
2021/12/20 13:01:52;;;;;;;15.13;9.77;;;;;;;;;;5123741;28;20210;-60
2021/12/20 13:04:18;;;;;;;20.95;11.27;;;;;;;;;;5124074;28;20219;-59
2021/12/20 13:06:45;;;;;;;22.55;11.82;;;;;;;;;;5123804;28;20203;-58
2021/12/20 13:09:12;;;;;;;24.23;12.27;;;;;;;;;;5122888;28;20446;-58
2021/12/20 13:11:39;;;;;;;19.95;12.07;;;;;;;;;;5124205;28;20257;-59
2021/12/20 13:14:08;;;;;;;25.58;13.40;;;;;;;;;;5141034;27;20190;-59
2021/12/20 13:16:37;;;;;;;21.33;11.55;;;;;;;;;;5145567;27;20202;-59
2021/12/20 13:19:05;;;;;;;17.95;11.20;;;;;;;;;;5145784;27;20247;-58
2021/12/20 13:21:48;;;;;;;17.95;11.43;;;;;;;;;;5124602;28;20214;-58
2021/12/20 13:24:17;;;;;;;19.75;10.50;;;;;;;;;;5124376;28;20222;-59
2021/12/20 13:26:43;;;;;;;20.13;11.15;;;;;;;;;;5124803;28;20206;-59
2021/12/20 13:29:15;;;;;;;17.70;10.98;;;;;;;;;;5124612;28;20203;-57
2021/12/20 13:31:41;;;;;;;18.15;10.40;;;;;;;;;;5124061;28;20235;-59
2021/12/20 13:34:11;;;;;;;16.42;10.35;;;;;;;;;;5120849;28;20204;-59
2021/12/20 13:36:38;;;;;;;15.13;8.93;;;;;;;;;;5121004;28;20537;-59
2021/12/20 13:39:05;;;;;;;13.15;6.93;;;;;;;;;;5121115;28;20199;-59
2021/12/20 13:41:34;;;;;;;13.45;6.20;;;;;;;;;;5120778;28;20203;-58
2021/12/20 13:44:01;;;;;;;8.85;5.57;;;;;;;;;;5120838;28;20223;-58
2021/12/20 13:46:30;;;;;;;8.63;5.88;;;;;;;;;;5120816;28;20261;-59
2021/12/20 13:49:04;;;;;;;10.43;5.93;;;;;;;;;;5121099;28;20207;-59
2021/12/20 13:51:41;;;;;;;10.73;5.47;;;;;;;;;;5120241;28;20207;-58
2021/12/20 13:54:29;;;;;;;9.40;5.55;;;;;;;;;;5121187;28;20195;-58
2021/12/20 13:57:01;;;;;;;13.48;5.28;;;;;;;;;;5095529;28;20196;-59
2021/12/20 13:59:30;;;;;;;8.48;4.88;;;;;;;;;;5102461;28;20678;-58
2021/12/20 14:01:57;;;;;;;8.70;5.10;;;;;;;;;;5120425;28;20207;-59
2021/12/20 14:04:31;;;;;;;8.30;4.78;;;;;;;;;;5119757;28;20246;-59
2021/12/20 14:06:59;;;;;;;6.97;4.85;;;;;;;;;;5120201;28;20266;-59
2021/12/20 14:09:35;;;;;;;9.35;4.95;;;;;;;;;;5119707;28;20214;-59
2021/12/20 14:12:14;;;;;;;7.68;4.57;;;;;;;;;;5120361;28;20533;-58
2021/12/20 14:14:57;;;;;;;8.38;5.10;;;;;;;;;;5108907;28;20202;-58
2021/12/20 14:17:23;;;;;;;10.05;4.30;;;;;;;;;;5120573;28;20199;-59
2021/12/20 14:19:57;;;;;;;7.40;4.15;;;;;;;;;;5119586;28;20207;-58
2021/12/20 14:22:23;;;;;;;7.72;4.53;;;;;;;;;;5120419;28;20270;-59
2021/12/20 14:24:49;;;;;;;8.73;4.53;;;;;;;;;;5120556;28;20229;-59
2021/12/20 14:27:23;;;;;;;10.27;4.80;;;;;;;;;;5120330;28;20213;-59
2021/12/20 14:29:49;;;;;;;7.78;4.75;;;;;;;;;;5119845;28;20210;-58
2021/12/20 14:32:31;;;;;;;8.52;5.05;;;;;;;;;;5119657;28;20214;-59
2021/12/20 14:34:57;;;;;;;13.35;5.55;;;;;;;;;;5119069;28;20210;-58
2021/12/20 14:37:24;;;;;;;8.35;5.13;;;;;;;;;;5119517;28;20522;-59
2021/12/20 14:39:50;;;;;;;7.78;4.80;;;;;;;;;;5119160;28;20207;-59